createdAt,value
2022-10-19T00:01:12.102Z,16.90
2022-10-19T00:03:39.750Z,17.45
2022-10-19T00:06:26.192Z,18.02
2022-10-19T00:09:18.181Z,19.60
2022-10-19T00:11:50.043Z,20.35
2022-10-19T00:14:22.872Z,21.58
2022-10-19T00:16:51.212Z,21.98
2022-10-19T00:19:21.988Z,23.08
2022-10-19T00:24:16.054Z,21.48
2022-10-19T00:26:43.579Z,22.58
2022-10-19T00:29:12.466Z,21.27
2022-10-19T00:31:39.342Z,22.33
2022-10-19T00:34:06.147Z,21.63
2022-10-19T00:36:35.076Z,20.15
2022-10-19T00:39:03.936Z,20.60
2022-10-19T00:41:32.871Z,20.80
2022-10-19T00:44:02.595Z,20.02
2022-10-19T00:46:31.997Z,19.00
2022-10-19T00:49:04.011Z,21.13
2022-10-19T00:51:33.487Z,20.20
2022-10-19T00:54:02.651Z,20.52
2022-10-19T00:56:29.487Z,20.40
2022-10-19T00:58:56.446Z,20.73
2022-10-19T01:01:27.329Z,20.38
2022-10-19T01:03:54.080Z,21.30
2022-10-19T01:06:21.220Z,20.75
2022-10-19T01:08:47.862Z,20.67
2022-10-19T01:11:14.583Z,20.98
2022-10-19T01:14:05.578Z,21.30
2022-10-19T01:17:17.306Z,20.40
2022-10-19T01:20:05.997Z,20.80
2022-10-19T01:23:03.670Z,20.38
2022-10-19T01:25:39.375Z,20.17
2022-10-19T01:28:17.233Z,20.98
2022-10-19T01:30:58.892Z,20.35
2022-10-19T01:33:41.453Z,20.55
2022-10-19T01:36:29.926Z,21.95
2022-10-19T01:39:13.006Z,20.73
2022-10-19T01:41:58.194Z,20.08
2022-10-19T01:44:48.384Z,20.00
2022-10-19T01:47:31.170Z,19.80
2022-10-19T01:50:16.595Z,20.30
2022-10-19T01:52:44.056Z,20.90
2022-10-19T01:55:14.814Z,19.30
2022-10-19T01:57:47.041Z,19.70
2022-10-19T02:00:16.566Z,19.73
2022-10-19T02:02:47.882Z,19.27
2022-10-19T02:05:17.791Z,18.70
2022-10-19T02:07:49.512Z,20.27
2022-10-19T02:10:16.329Z,19.50
2022-10-19T02:12:43.928Z,20.33
2022-10-19T02:15:14.681Z,20.52
2022-10-19T02:17:49.205Z,20.05
2022-10-19T02:20:17.091Z,21.23
2022-10-19T02:22:44.391Z,21.80
2022-10-19T02:25:12.188Z,23.13
2022-10-19T02:27:43.594Z,21.65
2022-10-19T02:30:13.034Z,22.00
2022-10-19T02:32:39.963Z,23.27
2022-10-19T02:35:07.266Z,21.50
2022-10-19T02:37:34.226Z,21.50
2022-10-19T02:40:01.264Z,20.52
2022-10-19T02:42:50.987Z,20.50
2022-10-19T02:45:23.742Z,19.17
2022-10-19T02:47:55.133Z,20.67
2022-10-19T02:50:22.593Z,22.35
2022-10-19T02:52:49.270Z,23.85
2022-10-19T02:55:16.108Z,25.02
2022-10-19T02:57:42.857Z,26.15
2022-10-19T03:00:10.797Z,26.13
2022-10-19T03:02:37.638Z,26.02
2022-10-19T03:05:04.814Z,28.08
2022-10-19T03:07:31.736Z,26.38
2022-10-19T03:09:58.541Z,27.73
2022-10-19T03:12:25.213Z,25.70
2022-10-19T03:14:51.864Z,25.92
2022-10-19T03:17:18.630Z,25.80
2022-10-19T03:19:45.454Z,23.45
2022-10-19T03:22:13.864Z,24.48
2022-10-19T03:24:40.620Z,23.23
2022-10-19T03:27:07.347Z,22.70
2022-10-19T03:29:33.994Z,21.45
2022-10-19T03:32:00.748Z,23.10
2022-10-19T03:34:27.535Z,20.42
2022-10-19T03:36:54.317Z,19.67
2022-10-19T03:39:20.992Z,19.90
2022-10-19T03:41:47.680Z,18.55
2022-10-19T03:44:14.357Z,18.88
2022-10-19T03:46:41.252Z,18.42
2022-10-19T03:49:09.337Z,19.80
2022-10-19T03:51:36.232Z,20.23
2022-10-19T03:54:06.100Z,20.50
2022-10-19T03:59:02.516Z,17.80
2022-10-19T04:01:41.391Z,19.08
2022-10-19T04:04:12.162Z,17.80
2022-10-19T04:06:41.218Z,18.45
2022-10-19T04:09:09.358Z,19.67
2022-10-19T04:11:36.605Z,19.77
2022-10-19T04:14:03.842Z,20.05
2022-10-19T04:16:32.226Z,20.13
2022-10-19T04:18:59.510Z,19.23
2022-10-19T04:21:33.483Z,19.05
2022-10-19T04:24:04.996Z,19.50
2022-10-19T04:26:32.480Z,20.08
2022-10-19T04:29:00.428Z,18.85
2022-10-19T04:31:28.671Z,17.92
2022-10-19T04:33:56.364Z,18.35
2022-10-19T04:36:23.995Z,17.48
2022-10-19T04:38:51.021Z,16.90
2022-10-19T04:41:20.103Z,17.67
2022-10-19T04:43:47.904Z,18.27
2022-10-19T04:46:19.845Z,17.17
2022-10-19T04:48:48.284Z,17.88
2022-10-19T04:51:15.859Z,17.58
2022-10-19T04:53:44.099Z,17.02
2022-10-19T04:56:22.495Z,17.77
2022-10-19T04:58:49.586Z,16.65
2022-10-19T05:01:20.869Z,16.23
2022-10-19T05:03:48.626Z,15.68
2022-10-19T05:06:16.168Z,15.07
2022-10-19T05:08:42.865Z,14.80
2022-10-19T05:11:14.406Z,14.80
2022-10-19T05:13:42.701Z,14.00
2022-10-19T05:16:12.750Z,13.98
2022-10-19T05:18:40.000Z,14.07
2022-10-19T05:21:10.087Z,14.50
2022-10-19T05:23:37.184Z,14.38
2022-10-19T05:26:06.616Z,13.85
2022-10-19T05:28:33.964Z,14.30
2022-10-19T05:31:09.920Z,13.52
2022-10-19T05:33:37.672Z,12.95
2022-10-19T05:36:20.974Z,12.63
2022-10-19T05:38:50.034Z,13.13
2022-10-19T05:41:17.329Z,12.03
2022-10-19T05:43:45.116Z,12.82
2022-10-19T05:46:14.421Z,11.27
2022-10-19T05:48:41.669Z,11.02
2022-10-19T05:51:11.998Z,11.45
2022-10-19T05:56:17.306Z,10.63
2022-10-19T05:58:44.766Z,9.27
2022-10-19T06:01:12.665Z,9.82
2022-10-19T06:03:39.349Z,8.93
2022-10-19T06:06:07.946Z,9.40
2022-10-19T06:08:35.176Z,9.95
2022-10-19T06:11:33.934Z,10.02
2022-10-19T06:14:02.573Z,8.75
2022-10-19T06:16:30.918Z,8.35
2022-10-19T06:18:58.188Z,7.50
2022-10-19T06:21:27.321Z,6.13
2022-10-19T06:23:56.823Z,4.13
2022-10-19T06:26:24.547Z,4.32
2022-10-19T06:28:52.109Z,3.75
2022-10-19T06:31:18.770Z,3.60
2022-10-19T06:33:49.211Z,3.50
2022-10-19T06:36:19.497Z,3.33
2022-10-19T06:38:46.967Z,3.10
2022-10-19T06:41:14.189Z,3.33
2022-10-19T06:43:43.050Z,3.70
2022-10-19T06:46:17.530Z,3.95
2022-10-19T06:48:44.266Z,3.67
2022-10-19T06:51:12.035Z,3.80
2022-10-19T06:53:38.829Z,5.25
2022-10-19T06:56:06.774Z,4.78
2022-10-19T06:58:38.261Z,4.43
2022-10-19T07:01:07.760Z,5.03
2022-10-19T07:03:35.648Z,5.45
2022-10-19T07:06:05.490Z,6.03
2022-10-19T07:11:02.641Z,4.20
2022-10-19T07:13:30.431Z,4.40
2022-10-19T07:16:07.018Z,4.53
2022-10-19T07:18:35.346Z,4.20
2022-10-19T07:21:04.704Z,4.43
2022-10-19T07:23:33.133Z,4.78
2022-10-19T07:26:05.411Z,4.50
2022-10-19T07:28:32.407Z,5.18
2022-10-19T07:30:59.127Z,4.97
2022-10-19T07:33:26.109Z,5.57
2022-10-19T07:35:59.406Z,5.72
2022-10-19T07:38:26.092Z,6.03
2022-10-19T07:41:14.170Z,5.47
2022-10-19T07:43:43.125Z,5.20
2022-10-19T07:46:13.467Z,6.27
2022-10-19T07:48:40.156Z,5.75
2022-10-19T07:51:08.894Z,5.63
2022-10-19T07:53:36.579Z,5.50
2022-10-19T07:56:09.174Z,5.70
2022-10-19T07:58:36.634Z,6.22
2022-10-19T08:01:06.381Z,5.95
2022-10-19T08:06:22.015Z,5.72
2022-10-19T08:08:49.488Z,6.07
2022-10-19T08:11:23.638Z,6.15
2022-10-19T08:13:50.726Z,6.10
2022-10-19T08:16:28.604Z,5.65
2022-10-19T08:19:01.230Z,4.80
2022-10-19T08:21:29.189Z,4.80
2022-10-19T08:23:56.109Z,5.40
2022-10-19T08:26:23.202Z,5.47
2022-10-19T08:28:49.920Z,5.10
2022-10-19T08:31:22.242Z,4.75
2022-10-19T08:33:50.620Z,5.45
2022-10-19T08:36:19.670Z,5.65
2022-10-19T08:38:48.593Z,5.63
2022-10-19T08:41:34.257Z,4.88
2022-10-19T08:44:19.137Z,5.20
2022-10-19T08:47:14.059Z,5.22
2022-10-19T08:49:41.864Z,5.05
2022-10-19T08:52:20.206Z,5.22
2022-10-19T08:54:58.878Z,5.70
2022-10-19T08:57:34.846Z,5.15
2022-10-19T09:00:20.986Z,4.30
2022-10-19T09:03:31.918Z,4.60
2022-10-19T09:06:19.928Z,3.38
2022-10-19T09:08:49.939Z,4.05
2022-10-19T09:11:22.703Z,3.47
2022-10-19T09:14:04.663Z,4.07
2022-10-19T09:16:33.038Z,3.47
2022-10-19T09:18:59.710Z,3.60
2022-10-19T09:21:46.312Z,3.30
2022-10-19T09:24:20.091Z,3.25
2022-10-19T09:26:53.703Z,3.38
2022-10-19T09:29:30.009Z,2.95
2022-10-19T09:32:00.624Z,2.85
2022-10-19T09:34:33.473Z,3.03
2022-10-19T09:37:00.957Z,2.75
2022-10-19T09:39:29.943Z,3.05
2022-10-19T09:42:08.365Z,2.95
2022-10-19T09:44:35.038Z,3.03
2022-10-19T09:47:20.636Z,2.85
2022-10-19T09:49:48.941Z,3.30
2022-10-19T09:52:39.467Z,2.95
2022-10-19T09:55:15.785Z,3.10
2022-10-19T09:57:46.878Z,2.95
2022-10-19T10:00:22.296Z,3.00
2022-10-19T10:02:54.402Z,2.72
2022-10-19T10:05:36.683Z,2.42
2022-10-19T10:08:05.077Z,2.70
2022-10-19T10:10:38.447Z,2.70
2022-10-19T10:13:06.114Z,2.70
2022-10-19T10:15:44.200Z,2.35
2022-10-19T10:18:16.765Z,2.33
2022-10-19T10:21:04.909Z,1.90
2022-10-19T10:23:36.429Z,2.20
2022-10-19T10:26:04.377Z,2.33
2022-10-19T10:28:31.524Z,1.90
2022-10-19T10:31:04.928Z,2.28
2022-10-19T10:33:49.207Z,2.22
2022-10-19T10:36:15.913Z,1.65
2022-10-19T10:38:47.364Z,1.63
2022-10-19T10:41:20.206Z,1.52
2022-10-19T10:44:04.617Z,1.25
2022-10-19T10:46:39.422Z,1.27
2022-10-19T10:49:16.725Z,1.60
2022-10-19T10:51:50.658Z,1.70
2022-10-19T10:54:31.395Z,1.38
2022-10-19T10:57:20.029Z,1.23
2022-10-19T10:59:49.814Z,2.60
2022-10-19T11:05:17.634Z,1.58
2022-10-19T11:07:48.383Z,1.30
2022-10-19T11:10:44.296Z,1.50
2022-10-19T11:13:13.985Z,1.20
2022-10-19T11:18:32.440Z,1.10
2022-10-19T11:21:07.381Z,1.40
2022-10-19T11:23:49.257Z,1.25
2022-10-19T11:26:53.724Z,1.60
2022-10-19T11:29:55.725Z,1.23
2022-10-19T11:32:48.114Z,1.50
2022-10-19T11:35:50.373Z,1.50
2022-10-19T11:38:35.936Z,1.45
2022-10-19T11:41:38.925Z,1.10
2022-10-19T11:44:26.369Z,1.58
2022-10-19T11:47:08.167Z,1.60
2022-10-19T11:50:16.329Z,1.70
2022-10-19T11:53:08.048Z,1.40
2022-10-19T11:56:13.594Z,2.08
2022-10-19T11:59:05.646Z,1.83
2022-10-19T12:02:05.195Z,1.50
2022-10-19T12:04:37.756Z,1.48
2022-10-19T12:07:16.585Z,1.50
2022-10-19T12:09:55.146Z,1.83
2022-10-19T12:12:38.879Z,1.58
2022-10-19T12:15:18.859Z,1.60
2022-10-19T12:17:50.165Z,1.40
2022-10-19T12:20:24.929Z,1.73
2022-10-19T12:22:51.962Z,1.63
2022-10-19T12:25:20.036Z,1.60
2022-10-19T12:27:49.186Z,1.48
2022-10-19T12:30:22.469Z,1.65
2022-10-19T12:33:06.582Z,1.60
2022-10-19T12:35:53.518Z,1.45
2022-10-19T12:38:50.914Z,1.60
2022-10-19T12:41:24.938Z,2.33
2022-10-19T12:44:13.130Z,1.60
2022-10-19T12:47:00.846Z,1.73
2022-10-19T12:49:34.486Z,2.20
2022-10-19T12:52:02.421Z,1.58
2022-10-19T12:54:32.631Z,1.60
2022-10-19T12:57:01.806Z,1.65
2022-10-19T12:59:37.213Z,1.77
2022-10-19T13:02:24.380Z,1.80
2022-10-19T13:04:54.403Z,1.80
2022-10-19T13:07:21.191Z,1.70
2022-10-19T13:09:48.890Z,1.73
2022-10-19T13:12:25.619Z,1.95
2022-10-19T13:15:00.997Z,1.70
2022-10-19T13:17:36.656Z,1.90
2022-10-19T13:20:15.746Z,1.75
2022-10-19T13:22:45.055Z,1.80
2022-10-19T13:25:24.256Z,1.95
2022-10-19T13:27:52.859Z,1.70
2022-10-19T13:30:44.118Z,2.03
2022-10-19T13:33:26.028Z,5.10
2022-10-19T13:35:58.847Z,1.90
2022-10-19T13:38:32.966Z,2.03
2022-10-19T13:41:06.965Z,2.20
2022-10-19T13:43:55.416Z,2.10
2022-10-19T13:46:31.928Z,1.77
2022-10-19T13:49:02.286Z,2.58
2022-10-19T13:51:47.465Z,2.20
2022-10-19T13:54:19.923Z,2.30
2022-10-19T13:56:49.584Z,2.40
2022-10-19T13:59:59.638Z,2.30
2022-10-19T14:03:06.613Z,2.05
2022-10-19T14:08:43.288Z,2.05
2022-10-19T14:11:32.114Z,2.03
2022-10-19T14:14:11.121Z,2.13
2022-10-19T14:17:01.193Z,2.05
2022-10-19T14:19:34.180Z,2.50
2022-10-19T14:22:17.371Z,2.33
2022-10-19T14:24:44.225Z,2.33
2022-10-19T14:27:18.520Z,1.92
2022-10-19T14:29:48.122Z,2.10
2022-10-19T14:32:15.666Z,2.25
2022-10-19T14:34:44.723Z,2.00
2022-10-19T14:37:23.526Z,2.00
2022-10-19T14:40:08.569Z,2.10
2022-10-19T14:42:43.854Z,2.17
2022-10-19T14:45:23.341Z,2.20
2022-10-19T14:48:03.842Z,2.30
2022-10-19T14:50:39.564Z,2.00
2022-10-19T14:53:37.348Z,1.92
2022-10-19T14:56:15.386Z,2.38
2022-10-19T14:58:51.325Z,2.50
2022-10-19T15:01:20.225Z,2.80
2022-10-19T15:03:49.010Z,2.47
2022-10-19T15:06:42.546Z,2.43
2022-10-19T15:09:37.372Z,2.17
2022-10-19T15:12:19.790Z,2.22
2022-10-19T15:14:47.961Z,2.35
2022-10-19T15:17:22.975Z,2.08
2022-10-19T15:19:49.885Z,2.30
2022-10-19T15:22:20.262Z,2.40
2022-10-19T15:25:07.729Z,2.55
2022-10-19T15:27:34.371Z,2.72
2022-10-19T15:30:22.930Z,2.45
2022-10-19T15:33:01.792Z,2.72
2022-10-19T15:35:35.146Z,2.00
2022-10-19T15:38:10.163Z,2.42
2022-10-19T15:40:40.770Z,2.28
2022-10-19T15:43:34.956Z,2.33
2022-10-19T15:46:05.409Z,2.25
2022-10-19T15:48:49.942Z,2.63
2022-10-19T15:51:25.499Z,2.47
2022-10-19T15:53:59.928Z,2.40
2022-10-19T15:56:29.246Z,2.35
2022-10-19T15:58:58.314Z,2.60
2022-10-19T16:01:27.366Z,2.70
2022-10-19T16:03:54.916Z,2.67
2022-10-19T16:06:24.809Z,2.80
2022-10-19T16:11:21.264Z,2.90
2022-10-19T16:16:33.444Z,2.92
2022-10-19T16:19:00.856Z,2.97
2022-10-19T16:21:30.754Z,3.00
2022-10-19T16:23:58.158Z,3.35
2022-10-19T16:26:26.278Z,3.15
2022-10-19T16:28:54.265Z,3.45
2022-10-19T16:31:21.653Z,3.05
2022-10-19T16:33:48.333Z,3.03
2022-10-19T16:36:15.438Z,3.25
2022-10-19T16:38:42.100Z,3.40
2022-10-19T16:41:10.860Z,3.42
2022-10-19T16:43:37.985Z,4.00
2022-10-19T16:46:05.641Z,4.57
2022-10-19T16:48:32.849Z,6.72
2022-10-19T16:51:05.683Z,16.15
2022-10-19T16:53:33.562Z,6.45
2022-10-19T16:56:08.938Z,6.88
2022-10-19T16:58:37.314Z,6.85
2022-10-19T17:01:08.364Z,6.18
2022-10-19T17:03:35.760Z,6.82
2022-10-19T17:06:03.804Z,7.10
2022-10-19T17:08:37.197Z,7.40
2022-10-19T17:11:23.684Z,8.32
2022-10-19T17:13:52.749Z,9.27
2022-10-19T17:16:21.304Z,9.20
2022-10-19T17:18:48.620Z,9.43
2022-10-19T17:21:19.039Z,8.80
2022-10-19T17:23:46.360Z,9.00
2022-10-19T17:26:13.726Z,8.65
2022-10-19T17:28:40.801Z,8.77
2022-10-19T17:31:12.860Z,7.47
2022-10-19T17:33:40.942Z,6.78
2022-10-19T17:36:11.984Z,6.60
2022-10-19T17:38:39.570Z,5.57
2022-10-19T17:41:16.485Z,5.88
2022-10-19T17:43:45.522Z,5.55
2022-10-19T17:46:14.550Z,5.17
2022-10-19T17:48:43.074Z,4.73
2022-10-19T17:51:16.835Z,4.80
2022-10-19T17:53:45.492Z,5.30
2022-10-19T17:56:18.055Z,6.15
2022-10-19T17:58:45.363Z,6.95
2022-10-19T18:01:13.026Z,5.45
2022-10-19T18:03:40.303Z,5.57
2022-10-19T18:06:10.870Z,5.72
2022-10-19T18:08:40.809Z,5.70
2022-10-19T18:11:13.154Z,5.28
2022-10-19T18:13:40.528Z,5.78
2022-10-19T18:16:13.306Z,5.18
2022-10-19T18:18:42.279Z,5.07
2022-10-19T18:21:11.532Z,4.67
2022-10-19T18:23:38.991Z,4.47
2022-10-19T18:26:13.490Z,4.55
2022-10-19T18:28:40.634Z,5.60
2022-10-19T18:31:16.107Z,4.88
2022-10-19T18:33:43.122Z,4.80
2022-10-19T18:36:10.803Z,4.50
2022-10-19T18:38:38.452Z,5.43
2022-10-19T18:41:25.912Z,4.88
2022-10-19T18:43:55.423Z,4.60
2022-10-19T18:46:23.409Z,4.53
2022-10-19T18:48:50.209Z,4.15
2022-10-19T18:51:18.499Z,4.30
2022-10-19T18:53:46.370Z,4.63
2022-10-19T18:56:15.582Z,5.03
2022-10-19T18:58:43.246Z,4.70
2022-10-19T19:01:24.221Z,4.40
2022-10-19T19:03:53.300Z,3.95
2022-10-19T19:06:30.401Z,4.00
2022-10-19T19:08:58.834Z,4.30
2022-10-19T19:11:29.582Z,3.72
2022-10-19T19:14:06.251Z,4.05
2022-10-19T19:16:36.500Z,3.83
2022-10-19T19:19:04.635Z,3.70
2022-10-19T19:21:32.006Z,4.15
2022-10-19T19:24:00.769Z,4.10
2022-10-19T19:26:30.589Z,3.67
2022-10-19T19:31:26.756Z,4.00
2022-10-19T19:33:53.408Z,3.97
2022-10-19T19:36:21.008Z,4.10
2022-10-19T19:38:50.549Z,4.10
2022-10-19T19:41:17.742Z,3.58
2022-10-19T19:43:44.901Z,3.53
2022-10-19T19:46:17.402Z,3.47
2022-10-19T19:48:46.326Z,3.00
2022-10-19T19:51:16.787Z,3.47
2022-10-19T19:53:44.075Z,3.33
2022-10-19T19:56:12.312Z,3.35
2022-10-19T19:58:39.446Z,3.95
2022-10-19T20:01:19.219Z,3.13
2022-10-19T20:06:18.679Z,3.00
2022-10-19T20:08:47.640Z,3.17
2022-10-19T20:11:16.227Z,3.00
2022-10-19T20:13:44.543Z,2.85
2022-10-19T20:16:13.736Z,2.65
2022-10-19T20:18:41.451Z,2.47
2022-10-19T20:21:08.184Z,2.80
2022-10-19T20:23:35.073Z,2.78
2022-10-19T20:26:02.109Z,2.78
2022-10-19T20:28:32.110Z,2.65
2022-10-19T20:31:06.571Z,2.20
2022-10-19T20:33:35.195Z,2.38
2022-10-19T20:36:13.310Z,2.65
2022-10-19T20:38:40.740Z,2.58
2022-10-19T20:41:09.481Z,2.72
2022-10-19T20:43:37.624Z,2.65
2022-10-19T20:46:05.948Z,2.63
2022-10-19T20:48:33.081Z,2.40
2022-10-19T20:51:21.347Z,3.92
2022-10-19T20:53:50.263Z,2.92
2022-10-19T20:56:23.213Z,3.58
2022-10-19T20:59:05.063Z,2.50
2022-10-19T21:01:33.910Z,3.03
2022-10-19T21:04:03.350Z,3.30
2022-10-19T21:06:31.823Z,3.30
2022-10-19T21:08:59.817Z,2.60
2022-10-19T21:11:35.468Z,3.83
2022-10-19T21:14:05.984Z,2.80
2022-10-19T21:16:34.101Z,2.22
2022-10-19T21:19:02.780Z,2.40
2022-10-19T21:21:32.177Z,2.58
2022-10-19T21:24:01.278Z,1.88
2022-10-19T21:26:28.648Z,2.25
2022-10-19T21:28:55.821Z,2.25
2022-10-19T21:31:25.002Z,2.10
2022-10-19T21:33:52.211Z,1.83
2022-10-19T21:36:21.086Z,2.00
2022-10-19T21:38:48.136Z,1.63
2022-10-19T21:41:20.959Z,1.67
2022-10-19T21:43:50.674Z,1.77
2022-10-19T21:46:19.659Z,1.80
2022-10-19T21:48:46.842Z,1.83
2022-10-19T21:51:33.783Z,1.67
2022-10-19T21:54:01.640Z,1.70
2022-10-19T21:56:28.630Z,1.45
2022-10-19T21:58:56.017Z,1.52
2022-10-19T22:01:26.090Z,1.50
2022-10-19T22:04:04.605Z,1.30
2022-10-19T22:06:33.395Z,1.50
2022-10-19T22:09:01.509Z,1.65
2022-10-19T22:11:28.816Z,1.63
2022-10-19T22:13:57.263Z,1.50
2022-10-19T22:16:25.104Z,1.50
2022-10-19T22:18:52.686Z,1.55
2022-10-19T22:21:23.073Z,1.58
2022-10-19T22:24:00.588Z,2.17
2022-10-19T22:26:30.359Z,1.52
2022-10-19T22:28:58.558Z,1.67
2022-10-19T22:31:27.202Z,1.88
2022-10-19T22:33:53.947Z,1.98
2022-10-19T22:36:20.750Z,1.70
2022-10-19T22:38:47.835Z,2.00
2022-10-19T22:42:10.560Z,2.08
2022-10-19T22:44:49.300Z,1.70
2022-10-19T22:47:16.040Z,2.40
2022-10-19T22:49:42.919Z,1.80
2022-10-19T22:52:09.686Z,1.70
2022-10-19T22:54:36.372Z,1.83
2022-10-19T22:57:03.612Z,2.25
2022-10-19T22:59:33.761Z,1.90
2022-10-19T23:02:06.403Z,1.90
2022-10-19T23:04:36.766Z,1.75
2022-10-19T23:07:05.079Z,1.75
2022-10-19T23:09:34.275Z,2.00
2022-10-19T23:12:05.347Z,1.70
2022-10-19T23:14:35.643Z,1.38
2022-10-19T23:17:04.670Z,1.40
2022-10-19T23:19:35.906Z,1.20
2022-10-19T23:22:09.177Z,1.67
2022-10-19T23:24:39.272Z,1.60
2022-10-19T23:27:09.196Z,1.70
2022-10-19T23:29:40.664Z,1.88
2022-10-19T23:32:12.388Z,1.73
2022-10-19T23:34:47.577Z,2.08
2022-10-19T23:37:17.049Z,1.80
2022-10-19T23:39:58.253Z,1.80
2022-10-19T23:42:25.443Z,2.20
2022-10-19T23:44:54.682Z,1.98
2022-10-19T23:47:22.558Z,2.00
2022-10-19T23:49:49.177Z,2.05
2022-10-19T23:52:16.975Z,2.05
2022-10-19T23:54:45.470Z,2.10
2022-10-19T23:57:16.955Z,2.20
2022-10-19T23:59:46.469Z,1.75
